createdAt,value
2023-03-01T00:02:08.187Z,38.53
2023-03-01T00:04:36.828Z,38.53
2023-03-01T00:07:03.643Z,34.50
2023-03-01T00:09:30.520Z,35.20
2023-03-01T00:11:57.321Z,36.13
2023-03-01T00:14:24.918Z,35.50
2023-03-01T00:16:51.737Z,34.30
2023-03-01T00:19:19.521Z,34.40
2023-03-01T00:21:46.336Z,34.27
2023-03-01T00:24:13.993Z,36.00
2023-03-01T00:26:40.839Z,35.57
2023-03-01T00:29:08.308Z,36.20
2023-03-01T00:31:35.343Z,35.70
2023-03-01T00:34:03.955Z,36.43
2023-03-01T00:36:32.629Z,36.77
2023-03-01T00:39:00.257Z,34.60
2023-03-01T00:41:29.974Z,34.30
2023-03-01T00:43:57.672Z,35.10
2023-03-01T00:46:26.141Z,34.53
2023-03-01T00:48:53.184Z,35.63
2023-03-01T00:51:27.129Z,35.13
2023-03-01T00:53:55.049Z,34.27
2023-03-01T00:56:22.348Z,35.07
2023-03-01T00:58:49.399Z,35.60
2023-03-01T01:01:18.582Z,36.60
2023-03-01T01:03:50.102Z,37.27
2023-03-01T01:06:18.119Z,37.10
2023-03-01T01:08:44.957Z,38.67
2023-03-01T01:11:12.665Z,40.53
2023-03-01T01:13:40.048Z,42.27
2023-03-01T01:16:08.064Z,38.53
2023-03-01T01:18:34.991Z,38.47
2023-03-01T01:21:05.593Z,33.83
2023-03-01T01:23:32.517Z,36.70
2023-03-01T01:26:04.623Z,36.67
2023-03-01T01:28:31.523Z,37.97
2023-03-01T01:30:58.308Z,39.90
2023-03-01T01:33:25.168Z,37.87
2023-03-01T01:35:52.011Z,40.37
2023-03-01T01:38:19.181Z,38.93
2023-03-01T01:40:46.455Z,34.17
2023-03-01T01:43:24.560Z,36.27
2023-03-01T01:45:51.692Z,36.63
2023-03-01T01:48:21.695Z,36.23
2023-03-01T01:50:52.647Z,36.00
2023-03-01T01:53:20.292Z,38.00
2023-03-01T01:55:48.625Z,39.43
2023-03-01T01:58:17.163Z,38.47
2023-03-01T02:00:44.008Z,36.83
2023-03-01T02:03:12.715Z,37.47
2023-03-01T02:05:44.500Z,36.37
2023-03-01T02:08:12.755Z,37.67
2023-03-01T02:10:39.676Z,38.50
2023-03-01T02:13:06.678Z,36.70
2023-03-01T02:15:37.250Z,36.10
2023-03-01T02:18:04.795Z,35.87
2023-03-01T02:20:34.622Z,35.03
2023-03-01T02:23:01.926Z,34.57
2023-03-01T02:25:28.728Z,33.00
2023-03-01T02:28:14.501Z,32.77
2023-03-01T02:31:01.962Z,33.00
2023-03-01T02:33:29.939Z,32.77
2023-03-01T02:35:57.073Z,33.57
2023-03-01T02:38:24.101Z,31.17
2023-03-01T02:40:52.442Z,31.33
2023-03-01T02:43:20.838Z,31.13
2023-03-01T02:45:51.864Z,31.40
2023-03-01T02:48:19.121Z,34.23
2023-03-01T02:50:45.945Z,31.40
2023-03-01T02:53:17.211Z,33.37
2023-03-01T02:55:44.393Z,35.03
2023-03-01T02:58:11.558Z,33.27
2023-03-01T03:00:46.626Z,34.70
2023-03-01T03:03:16.366Z,32.07
2023-03-01T03:05:43.400Z,32.23
2023-03-01T03:08:10.506Z,32.53
2023-03-01T03:10:38.993Z,32.53
2023-03-01T03:13:08.218Z,33.37
2023-03-01T03:15:39.581Z,33.83
2023-03-01T03:18:08.163Z,36.77
2023-03-01T03:20:35.096Z,36.67
2023-03-01T03:23:02.071Z,38.43
2023-03-01T03:25:29.589Z,39.90
2023-03-01T03:27:59.397Z,42.23
2023-03-01T03:30:27.683Z,57.70
2023-03-01T03:32:54.891Z,45.13
2023-03-01T03:35:25.994Z,50.20
2023-03-01T03:38:05.132Z,56.50
2023-03-01T03:40:34.275Z,52.87
2023-03-01T03:43:01.266Z,49.17
2023-03-01T03:45:28.100Z,42.33
2023-03-01T03:47:54.906Z,56.07
2023-03-01T03:50:22.390Z,44.63
2023-03-01T03:52:49.158Z,41.83
2023-03-01T03:55:20.407Z,42.13
2023-03-01T03:57:55.208Z,42.37
2023-03-01T04:00:22.963Z,46.47
2023-03-01T04:02:50.076Z,46.77
2023-03-01T04:05:17.577Z,48.40
2023-03-01T04:07:44.808Z,45.87
2023-03-01T04:10:12.929Z,56.00
2023-03-01T04:12:39.775Z,60.07
2023-03-01T04:15:14.224Z,64.33
2023-03-01T04:17:44.973Z,69.83
2023-03-01T04:20:13.572Z,79.17
2023-03-01T04:22:41.145Z,80.30
2023-03-01T04:25:08.297Z,77.97
2023-03-01T04:27:35.416Z,67.57
2023-03-01T04:30:02.500Z,63.23
2023-03-01T04:32:29.355Z,51.97
2023-03-01T04:34:56.250Z,51.23
2023-03-01T04:37:23.272Z,53.30
2023-03-01T04:39:50.002Z,58.90
2023-03-01T04:42:17.836Z,48.20
2023-03-01T04:44:45.012Z,43.90
2023-03-01T04:47:12.197Z,41.07
2023-03-01T04:49:38.933Z,39.50
2023-03-01T04:52:05.991Z,42.70
2023-03-01T04:54:34.262Z,41.70
2023-03-01T04:57:02.429Z,44.53
2023-03-01T04:59:30.062Z,45.30
2023-03-01T05:01:57.273Z,52.90
2023-03-01T05:04:24.721Z,36.70
2023-03-01T05:06:51.964Z,35.77
2023-03-01T05:09:18.704Z,35.50
2023-03-01T05:11:45.755Z,35.93
2023-03-01T05:14:12.583Z,32.30
2023-03-01T05:16:39.408Z,35.63
2023-03-01T05:19:12.775Z,33.43
2023-03-01T05:22:02.464Z,41.83
2023-03-01T05:24:29.993Z,38.30
2023-03-01T05:26:56.946Z,35.30
2023-03-01T05:29:27.802Z,37.30
2023-03-01T05:31:55.589Z,54.80
2023-03-01T05:34:33.666Z,43.13
2023-03-01T05:37:00.514Z,41.60
2023-03-01T05:39:27.935Z,42.13
2023-03-01T05:41:55.757Z,42.27
2023-03-01T05:44:23.290Z,43.50
2023-03-01T05:46:50.656Z,43.03
2023-03-01T05:49:17.420Z,43.40
2023-03-01T05:51:48.176Z,46.53
2023-03-01T05:54:15.069Z,41.60
2023-03-01T05:56:41.973Z,45.00
2023-03-01T05:59:08.768Z,43.17
2023-03-01T06:01:36.114Z,46.70
2023-03-01T06:04:03.335Z,47.27
2023-03-01T06:06:31.031Z,48.60
2023-03-01T06:08:58.068Z,47.87
2023-03-01T06:11:24.948Z,49.67
2023-03-01T06:13:51.894Z,53.93
2023-03-01T06:16:18.673Z,49.93
2023-03-01T06:18:45.574Z,51.97
2023-03-01T06:21:12.492Z,54.30
2023-03-01T06:23:39.533Z,50.60
2023-03-01T06:26:07.404Z,49.70
2023-03-01T06:28:34.222Z,46.30
2023-03-01T06:31:01.034Z,48.33
2023-03-01T06:33:27.854Z,48.00
2023-03-01T06:35:57.853Z,46.83
2023-03-01T06:38:25.360Z,49.40
2023-03-01T06:40:55.933Z,50.03
2023-03-01T06:43:22.912Z,49.77
2023-03-01T06:45:49.649Z,49.73
2023-03-01T06:48:16.575Z,49.33
2023-03-01T06:50:43.386Z,50.03
2023-03-01T06:53:10.353Z,49.73
2023-03-01T06:55:37.550Z,47.03
2023-03-01T06:58:04.521Z,46.03
2023-03-01T07:00:31.853Z,46.37
2023-03-01T07:03:03.177Z,47.10
2023-03-01T07:05:30.731Z,49.57
2023-03-01T07:07:58.762Z,43.70
2023-03-01T07:10:25.664Z,43.73
2023-03-01T07:12:55.270Z,41.87
2023-03-01T07:15:22.168Z,42.03
2023-03-01T07:17:51.138Z,41.13
2023-03-01T07:20:18.914Z,38.67
2023-03-01T07:22:45.767Z,40.67
2023-03-01T07:25:12.694Z,40.57
2023-03-01T07:27:39.593Z,39.57
2023-03-01T07:30:06.892Z,48.37
2023-03-01T07:32:33.806Z,69.07
2023-03-01T07:35:00.722Z,38.20
2023-03-01T07:37:27.554Z,37.33
2023-03-01T07:39:54.440Z,37.90
2023-03-01T07:42:21.261Z,38.30
2023-03-01T07:44:48.082Z,37.43
2023-03-01T07:47:15.312Z,36.00
2023-03-01T07:49:42.385Z,34.53
2023-03-01T07:52:10.921Z,36.23
2023-03-01T07:54:37.663Z,33.97
2023-03-01T07:57:04.641Z,35.23
2023-03-01T07:59:31.446Z,33.90
2023-03-01T08:01:58.549Z,35.40
2023-03-01T08:04:28.692Z,33.07
2023-03-01T08:06:56.004Z,33.73
2023-03-01T08:09:23.382Z,32.60
2023-03-01T08:11:50.385Z,32.67
2023-03-01T08:14:17.312Z,33.93
2023-03-01T08:16:44.352Z,34.97
2023-03-01T08:19:12.034Z,33.33
2023-03-01T08:21:39.307Z,34.43
2023-03-01T08:24:07.080Z,32.43
2023-03-01T08:26:34.165Z,32.70
2023-03-01T08:29:01.585Z,32.87
2023-03-01T08:31:38.848Z,32.07
2023-03-01T08:34:07.479Z,31.97
2023-03-01T08:36:36.544Z,31.87
2023-03-01T08:39:03.611Z,32.03
2023-03-01T08:41:31.140Z,30.77
2023-03-01T08:44:00.101Z,30.40
2023-03-01T08:46:31.434Z,32.27
2023-03-01T08:48:58.424Z,32.03
2023-03-01T08:51:26.008Z,27.10
2023-03-01T08:53:53.182Z,24.13
2023-03-01T08:56:20.659Z,23.87
2023-03-01T08:58:48.220Z,20.10
2023-03-01T09:01:16.777Z,19.90
2023-03-01T09:03:44.057Z,21.40
2023-03-01T09:06:11.962Z,20.10
2023-03-01T09:08:39.746Z,18.27
2023-03-01T09:11:07.268Z,19.17
2023-03-01T09:13:34.326Z,18.43
2023-03-01T09:16:05.572Z,21.23
2023-03-01T09:18:33.085Z,53.50
2023-03-01T09:21:04.964Z,19.20
2023-03-01T09:23:31.719Z,20.60
2023-03-01T09:25:58.872Z,21.07
2023-03-01T09:28:30.143Z,22.20
2023-03-01T09:31:01.033Z,19.90
2023-03-01T09:33:28.405Z,20.73
2023-03-01T09:36:02.332Z,21.97
2023-03-01T09:38:29.307Z,21.30
2023-03-01T09:40:56.180Z,21.20
2023-03-01T09:43:27.105Z,21.40
2023-03-01T09:45:55.194Z,22.00
2023-03-01T09:48:25.097Z,22.97
2023-03-01T09:50:52.434Z,24.63
2023-03-01T09:53:20.727Z,22.83
2023-03-01T09:56:00.180Z,23.53
2023-03-01T09:58:45.947Z,22.33
2023-03-01T10:01:15.740Z,24.10
2023-03-01T10:03:54.884Z,20.83
2023-03-01T10:06:34.473Z,20.77
2023-03-01T10:09:04.289Z,22.17
2023-03-01T10:11:39.367Z,21.17
2023-03-01T10:14:25.739Z,20.70
2023-03-01T10:17:00.022Z,21.20
2023-03-01T10:19:32.982Z,20.57
2023-03-01T10:22:04.582Z,20.93
2023-03-01T10:24:33.695Z,22.53
2023-03-01T10:27:04.416Z,21.53
2023-03-01T10:29:33.151Z,20.00
2023-03-01T10:32:00.040Z,21.03
2023-03-01T10:34:35.729Z,21.07
2023-03-01T10:37:10.236Z,20.53
2023-03-01T10:39:37.181Z,19.57
2023-03-01T10:42:03.941Z,17.60
2023-03-01T10:44:47.389Z,17.23
2023-03-01T10:47:15.786Z,18.20
2023-03-01T10:49:56.342Z,18.20
2023-03-01T10:52:44.064Z,17.97
2023-03-01T10:55:13.707Z,19.57
2023-03-01T10:57:43.029Z,18.40
2023-03-01T11:00:20.153Z,19.23
2023-03-01T11:02:59.094Z,19.77
2023-03-01T11:05:26.849Z,19.07
2023-03-01T11:07:57.915Z,18.83
2023-03-01T11:10:28.886Z,21.97
2023-03-01T11:13:06.504Z,20.57
2023-03-01T11:15:33.546Z,21.70
2023-03-01T11:18:09.332Z,19.57
2023-03-01T11:20:41.048Z,22.27
2023-03-01T11:23:12.010Z,22.40
2023-03-01T11:25:40.637Z,26.07
2023-03-01T11:28:09.101Z,21.20
2023-03-01T11:31:08.324Z,21.13
2023-03-01T11:33:40.905Z,19.87
2023-03-01T11:36:16.807Z,20.47
2023-03-01T11:38:43.938Z,20.30
2023-03-01T11:41:22.957Z,19.13
2023-03-01T11:43:55.873Z,19.70
2023-03-01T11:46:34.811Z,17.70
2023-03-01T11:49:07.718Z,15.87
2023-03-01T11:51:43.806Z,16.00
2023-03-01T11:54:13.425Z,17.03
2023-03-01T11:56:42.320Z,16.80
2023-03-01T11:59:20.094Z,16.40
2023-03-01T12:02:01.768Z,17.33
2023-03-01T12:04:48.370Z,16.03
2023-03-01T12:07:22.073Z,16.47
2023-03-01T12:10:09.171Z,13.60
2023-03-01T12:13:08.356Z,13.33
2023-03-01T12:16:02.025Z,10.00
2023-03-01T12:18:47.539Z,13.80
2023-03-01T12:21:29.732Z,10.77
2023-03-01T12:24:07.901Z,11.23
2023-03-01T12:26:34.764Z,11.27
2023-03-01T12:29:01.545Z,14.43
2023-03-01T12:31:35.428Z,13.90
2023-03-01T12:34:21.203Z,13.93
2023-03-01T12:36:51.127Z,13.60
2023-03-01T12:39:20.680Z,12.63
2023-03-01T12:41:49.671Z,12.77
2023-03-01T12:44:35.796Z,16.73
2023-03-01T12:47:11.678Z,15.47
2023-03-01T12:49:49.177Z,16.10
2023-03-01T12:52:34.860Z,15.27
2023-03-01T12:55:03.572Z,18.47
2023-03-01T12:57:39.107Z,18.23
2023-03-01T13:00:24.596Z,18.30
2023-03-01T13:02:56.177Z,19.53
2023-03-01T13:05:26.505Z,20.07
2023-03-01T13:08:12.140Z,19.27
2023-03-01T13:10:50.823Z,16.03
2023-03-01T13:13:22.189Z,15.00
2023-03-01T13:15:49.863Z,14.77
2023-03-01T13:18:16.844Z,17.20
2023-03-01T13:20:43.753Z,15.53
2023-03-01T13:23:10.661Z,16.90
2023-03-01T13:25:57.652Z,19.53
2023-03-01T13:28:38.957Z,20.00
2023-03-01T13:31:06.832Z,18.50
2023-03-01T13:33:37.589Z,20.27
2023-03-01T13:36:04.852Z,19.43
2023-03-01T13:38:39.004Z,21.23
2023-03-01T13:41:06.333Z,20.70
2023-03-01T13:43:36.849Z,20.87
2023-03-01T13:46:17.665Z,21.10
2023-03-01T13:48:45.834Z,20.03
2023-03-01T13:51:13.244Z,20.23
2023-03-01T13:53:47.860Z,20.77
2023-03-01T13:56:22.811Z,21.67
2023-03-01T13:58:49.719Z,20.07
2023-03-01T14:01:36.923Z,19.10
2023-03-01T14:04:05.130Z,20.70
2023-03-01T14:06:33.638Z,21.83
2023-03-01T14:09:06.700Z,20.77
2023-03-01T14:11:39.672Z,20.50
2023-03-01T14:14:25.134Z,20.33
2023-03-01T14:16:51.927Z,22.57
2023-03-01T14:19:32.664Z,21.43
2023-03-01T14:22:17.826Z,19.93
2023-03-01T14:24:48.412Z,19.57
2023-03-01T14:27:15.886Z,19.90
2023-03-01T14:29:42.822Z,20.00
2023-03-01T14:32:14.006Z,21.97
2023-03-01T14:34:45.944Z,23.73
2023-03-01T14:37:33.255Z,20.03
2023-03-01T14:40:01.523Z,21.77
2023-03-01T14:42:33.698Z,20.17
2023-03-01T14:45:01.829Z,20.67
2023-03-01T14:47:34.351Z,20.77
2023-03-01T14:50:10.823Z,20.23
2023-03-01T14:52:39.839Z,21.83
2023-03-01T14:55:08.286Z,20.47
2023-03-01T14:57:35.098Z,19.27
2023-03-01T15:00:07.343Z,20.67
2023-03-01T15:02:36.087Z,20.90
2023-03-01T15:05:09.184Z,19.63
2023-03-01T15:07:40.667Z,18.73
2023-03-01T15:10:08.515Z,20.17
2023-03-01T15:12:37.187Z,19.47
2023-03-01T15:15:21.254Z,19.43
2023-03-01T15:17:51.860Z,19.10
2023-03-01T15:20:22.852Z,18.87
2023-03-01T15:22:50.700Z,21.10
2023-03-01T15:25:21.561Z,19.70
2023-03-01T15:27:50.123Z,19.60
2023-03-01T15:30:39.104Z,22.00
2023-03-01T15:33:20.437Z,19.40
2023-03-01T15:35:54.405Z,20.83
2023-03-01T15:38:30.651Z,24.23
2023-03-01T15:40:58.122Z,20.10
2023-03-01T15:43:43.584Z,20.37
2023-03-01T15:46:21.249Z,20.00
2023-03-01T15:48:50.608Z,19.90
2023-03-01T15:51:17.802Z,18.90
2023-03-01T15:53:54.449Z,19.60
2023-03-01T15:56:22.005Z,23.13
2023-03-01T15:58:48.839Z,24.60
2023-03-01T16:01:16.652Z,21.83
2023-03-01T16:03:43.694Z,27.97
2023-03-01T16:06:13.507Z,34.93
2023-03-01T16:08:41.339Z,36.30
2023-03-01T16:11:18.370Z,43.00
2023-03-01T16:13:45.374Z,25.23
2023-03-01T16:16:17.537Z,22.03
2023-03-01T16:18:45.681Z,23.50
2023-03-01T16:21:22.768Z,23.17
2023-03-01T16:23:49.745Z,22.57
2023-03-01T16:26:16.617Z,21.87
2023-03-01T16:28:44.052Z,27.33
2023-03-01T16:31:11.030Z,25.17
2023-03-01T16:33:38.393Z,26.43
2023-03-01T16:36:09.730Z,26.27
2023-03-01T16:38:36.705Z,30.80
2023-03-01T16:41:03.457Z,37.93
2023-03-01T16:43:31.185Z,46.97
2023-03-01T16:45:58.179Z,34.40
2023-03-01T16:48:25.005Z,33.30
2023-03-01T16:50:58.681Z,31.60
2023-03-01T16:53:25.463Z,30.83
2023-03-01T16:55:58.976Z,31.13
2023-03-01T16:58:26.064Z,34.00
2023-03-01T17:00:54.499Z,34.53
2023-03-01T17:03:22.108Z,33.93
2023-03-01T17:05:49.260Z,34.03
2023-03-01T17:08:16.751Z,33.23
2023-03-01T17:10:43.591Z,34.33
2023-03-01T17:13:10.703Z,36.70
2023-03-01T17:15:41.444Z,36.53
2023-03-01T17:18:10.131Z,36.23
2023-03-01T17:20:37.269Z,35.43
2023-03-01T17:23:04.708Z,33.50
2023-03-01T17:25:31.717Z,26.50
2023-03-01T17:27:58.542Z,24.60
2023-03-01T17:30:25.476Z,25.30
2023-03-01T17:32:55.937Z,23.60
2023-03-01T17:35:23.173Z,24.97
2023-03-01T17:37:50.146Z,28.80
2023-03-01T17:40:16.989Z,29.00
2023-03-01T17:42:43.883Z,28.33
2023-03-01T17:45:10.926Z,34.73
2023-03-01T17:47:38.686Z,31.80
2023-03-01T17:50:06.926Z,30.67
2023-03-01T17:52:33.833Z,30.60
2023-03-01T17:55:00.578Z,37.93
2023-03-01T17:57:27.351Z,43.03
2023-03-01T17:59:54.455Z,34.60
2023-03-01T18:02:21.292Z,45.27
2023-03-01T18:04:48.382Z,50.20
2023-03-01T18:07:15.232Z,31.57
2023-03-01T18:09:42.032Z,29.57
2023-03-01T18:12:09.478Z,33.20
2023-03-01T18:14:36.837Z,33.70
2023-03-01T18:17:06.454Z,42.77
2023-03-01T18:19:33.459Z,46.57
2023-03-01T18:22:00.485Z,44.17
2023-03-01T18:24:27.341Z,54.00
2023-03-01T18:26:54.237Z,51.67
2023-03-01T18:29:21.102Z,50.90
2023-03-01T18:31:48.314Z,50.97
2023-03-01T18:34:15.268Z,54.77
2023-03-01T18:36:48.027Z,54.47
2023-03-01T18:39:23.309Z,57.73
2023-03-01T18:41:50.263Z,62.10
2023-03-01T18:44:17.403Z,52.80
2023-03-01T18:46:46.661Z,40.03
2023-03-01T18:49:14.436Z,40.77
2023-03-01T18:51:41.935Z,48.10
2023-03-01T18:54:11.072Z,45.47
2023-03-01T18:56:37.979Z,44.87
2023-03-01T18:59:05.077Z,38.50
2023-03-01T19:01:35.439Z,37.33
2023-03-01T19:04:03.876Z,36.33
2023-03-01T19:06:32.365Z,40.13
2023-03-01T19:08:59.951Z,40.87
2023-03-01T19:11:33.502Z,38.90
2023-03-01T19:14:01.319Z,40.90
2023-03-01T19:16:29.717Z,39.93
2023-03-01T19:18:59.687Z,39.63
2023-03-01T19:21:27.934Z,39.97
2023-03-01T19:23:55.299Z,47.57
2023-03-01T19:26:23.894Z,43.93
2023-03-01T19:28:51.168Z,41.70
2023-03-01T19:31:19.103Z,43.13
2023-03-01T19:33:46.030Z,41.00
2023-03-01T19:36:13.637Z,46.37
2023-03-01T19:38:41.085Z,47.57
2023-03-01T19:41:09.468Z,56.90
2023-03-01T19:43:36.424Z,56.70
2023-03-01T19:46:03.292Z,45.53
2023-03-01T19:48:30.331Z,38.90
2023-03-01T19:50:57.405Z,45.30
2023-03-01T19:53:25.130Z,60.07
2023-03-01T19:55:58.332Z,58.90
2023-03-01T19:58:25.627Z,56.83
2023-03-01T20:00:59.003Z,56.03
2023-03-01T20:03:26.839Z,64.33
2023-03-01T20:05:53.699Z,55.13
2023-03-01T20:08:20.715Z,56.70
2023-03-01T20:10:47.688Z,54.17
2023-03-01T20:13:15.001Z,58.77
2023-03-01T20:15:43.567Z,56.40
2023-03-01T20:18:11.282Z,50.93
2023-03-01T20:20:38.668Z,51.90
2023-03-01T20:23:05.680Z,53.37
2023-03-01T20:25:32.646Z,54.90
2023-03-01T20:27:59.854Z,53.30
2023-03-01T20:30:26.620Z,55.30
2023-03-01T20:32:53.919Z,52.43
2023-03-01T20:35:22.041Z,50.90
2023-03-01T20:37:51.421Z,48.40
2023-03-01T20:40:21.303Z,46.03
2023-03-01T20:42:48.223Z,50.50
2023-03-01T20:45:15.029Z,50.73
2023-03-01T20:47:41.847Z,43.47
2023-03-01T20:50:08.938Z,41.70
2023-03-01T20:52:45.849Z,34.77
2023-03-01T20:55:14.293Z,26.73
2023-03-01T20:57:42.026Z,27.13
2023-03-01T21:00:09.528Z,26.23
2023-03-01T21:02:36.657Z,28.80
2023-03-01T21:05:04.307Z,25.40
2023-03-01T21:07:31.809Z,24.83
2023-03-01T21:09:59.573Z,25.37
2023-03-01T21:12:26.878Z,27.37
2023-03-01T21:14:53.674Z,29.97
2023-03-01T21:17:21.464Z,31.10
2023-03-01T21:19:48.442Z,32.40
2023-03-01T21:22:16.404Z,32.27
2023-03-01T21:24:44.618Z,32.67
2023-03-01T21:27:12.161Z,35.23
2023-03-01T21:29:43.982Z,37.00
2023-03-01T21:32:12.411Z,38.53
2023-03-01T21:34:40.651Z,40.73
2023-03-01T21:37:09.830Z,38.60
2023-03-01T21:39:38.078Z,37.63
2023-03-01T21:42:05.929Z,36.67
2023-03-01T21:44:34.132Z,36.10
2023-03-01T21:47:02.469Z,34.87
2023-03-01T21:49:30.288Z,34.07
2023-03-01T21:51:58.548Z,33.10
2023-03-01T21:54:25.644Z,30.90
2023-03-01T21:56:53.000Z,31.40
2023-03-01T21:59:22.654Z,32.07
2023-03-01T22:01:51.380Z,37.07
2023-03-01T22:04:18.990Z,36.80
2023-03-01T22:06:47.517Z,35.73
2023-03-01T22:09:15.068Z,37.10
2023-03-01T22:11:44.402Z,37.43
2023-03-01T22:14:13.557Z,43.33
2023-03-01T22:16:42.170Z,35.70
2023-03-01T22:19:09.225Z,34.83
2023-03-01T22:21:39.485Z,34.60
2023-03-01T22:24:07.081Z,33.70
2023-03-01T22:26:35.870Z,35.40
2023-03-01T22:29:04.885Z,49.37
2023-03-01T22:31:31.864Z,50.23
2023-03-01T22:33:59.265Z,46.50
2023-03-01T22:36:26.424Z,42.37
2023-03-01T22:38:59.528Z,32.80
2023-03-01T22:41:27.966Z,31.53
2023-03-01T22:43:54.964Z,28.33
2023-03-01T22:46:22.040Z,28.50
2023-03-01T22:48:49.533Z,31.10
2023-03-01T22:51:18.164Z,35.80
2023-03-01T22:53:46.105Z,36.97
2023-03-01T22:56:15.399Z,35.90
2023-03-01T22:58:43.937Z,33.27
2023-03-01T23:01:16.251Z,33.93
2023-03-01T23:03:43.237Z,36.77
2023-03-01T23:06:10.101Z,39.47
2023-03-01T23:08:37.315Z,39.63
2023-03-01T23:11:04.882Z,39.63
2023-03-01T23:13:31.777Z,35.93
2023-03-01T23:15:59.027Z,36.93
2023-03-01T23:18:25.821Z,33.13
2023-03-01T23:20:52.724Z,33.93
2023-03-01T23:23:19.864Z,35.73
2023-03-01T23:25:56.582Z,28.80
2023-03-01T23:28:23.729Z,27.27
2023-03-01T23:30:54.635Z,27.00
2023-03-01T23:33:21.557Z,25.37
2023-03-01T23:35:48.340Z,27.10
2023-03-01T23:38:15.158Z,27.27
2023-03-01T23:40:41.952Z,25.53
2023-03-01T23:43:08.763Z,24.20
2023-03-01T23:45:43.090Z,30.60
2023-03-01T23:48:11.728Z,29.10
2023-03-01T23:50:42.142Z,28.70
2023-03-01T23:53:10.186Z,28.67
2023-03-01T23:55:37.472Z,27.70
2023-03-01T23:58:04.513Z,29.47
